W Bydgoszczy rozbił się Tecnam P2006T

Katastrofa samolotu Tecnam P2006 na lotnisku w Bydgoszczy (fot. TV)

Na bydgoskim lotnisku rozbił się we wtorek rano samolot Tecnam P2006 (znaki rejestracyjne SP-KEY). Dwie osoby nie żyją – poinformował dyżurny z Komendy Wojewódzkiej Państwowej Straży Pożarnej w Toruniu.

Jak poinformował portal Bydgoszcz 998, o godzinie 10:12 służby ratunkowe otrzymały zgłoszenie o pożarze awionetki na pasie startowym bydgoskiego lotniska. Do akcji natychmiast wyruszyły dwa zastępy Lotniskowej Służby Ratowniczo- Gaśniczej oraz cztery zastępy PSP z JRG 1 oraz JRG SP PSP. Gdy pierwsi strażacy dotarli na miejsce okazało się, że na miejscu doszło do tragedii. Niewielki, dwusilnikowy samolot szkoleniowy rozbił się niedaleko pasa startowego. Chwilę po uderzeniu w ziemię całkowicie stanął w płomieniach.

Z uwagi na duże prawdopodobieństwo, że w rozbitym wraku znajdują się poszkodowani, do akcji wyruszył śmigłowiec Lotnicze Pogotowie Ratunkowe #Ratownik2, którego baza znajduje się kilkaset metrów od miejsca zdarzenia. Niestety na ratunek było za późno. W katastrofie zginęły dwie osoby - 60 letni instruktor oraz 25 letnia uczennica.

Z informacji przekazanych przez Straż Pożarną wynika, że do wypadku doszło kwadrans po godzinie 10. – Samolot rozbił się na pasie startowym. Dwie osoby zginęły na miejscu – poinformował dyżurny z KW PSP. Była to 25-letnia kursantka i 60-letni instruktor.

Na miejscu pracuje pięć zastępów straży pożarnej oraz straż lotniskowa. Przyczyny wypadku nie są jeszcze znane.

Wypadek wydarzył się podczas lotu szkoleniowego. Nie możemy w tej chwili określić jego przyczyn, ale do zdarzenia doszło podczas jednego z manewrów ćwiczeniowych – poinformował PAP rzecznik prasowy Portu Lotniczego Bydgoszcz Daniel Mackiewicz.

Dodał, że wypadek nie wpływa na normalne funkcjonowanie lotniska i siatkę połączeń.

Jak poinformowała Komenda Wojewódzka Policji w Bydgoszczy, na miejscu, pod nadzorem prokuratora, pracują policjanci oraz służby lotniska. Na miejsce przyjedzie również członek Państwowej Komisji Badania Wypadków Lotniczych. Prowadzone w tej sprawie prokuratorskie śledztwo wyjaśni przyczyny i okoliczności tego tragicznego zdarzenia.

14/07/2020 09:30->    METAR EPBY 140930Z VRB04KT 9999 FEW047 22/10 Q1017=
14/07/2020 09:00->    METAR EPBY 140900Z 26005KT 160V310 CAVOK 22/11 Q1017=
14/07/2020 08:30->    METAR EPBY 140830Z VRB03KT CAVOK 21/11 Q1017=
14/07/2020 08:00->    METAR EPBY 140800Z VRB03KT CAVOK 21/11 Q1017=

Zdjęcia z wypadku samolotu Tecnam P2006, który rozbił się na pasie startowym Portu Lotniczego im. Ignacego Jana Paderewskiego w Bydgoszczy można zobaczyć na profilu facebookowym portalu Bydgoszcz 998 – (LINK).

Źródło: PAP
comments powered by Disqus